sensor_id;sensor_type;location;lat;lon;timestamp;temperature;humidity
8313;DHT22;4194;43.408;24.626;2023-06-10T00:01:46;18.80;99.90
8313;DHT22;4194;43.408;24.626;2023-06-10T00:04:16;18.00;99.90
8313;DHT22;4194;43.408;24.626;2023-06-10T00:06:45;17.90;99.90
8313;DHT22;4194;43.408;24.626;2023-06-10T00:09:13;18.40;99.90
8313;DHT22;4194;43.408;24.626;2023-06-10T00:11:40;17.80;99.90
8313;DHT22;4194;43.408;24.626;2023-06-10T00:14:06;17.80;99.90
8313;DHT22;4194;43.408;24.626;2023-06-10T00:19:02;18.40;99.90
8313;DHT22;4194;43.408;24.626;2023-06-10T00:21:30;17.70;99.90
8313;DHT22;4194;43.408;24.626;2023-06-10T00:23:56;17.60;99.90
8313;DHT22;4194;43.408;24.626;2023-06-10T00:26:24;17.90;99.90
8313;DHT22;4194;43.408;24.626;2023-06-10T00:28:51;17.50;99.90
8313;DHT22;4194;43.408;24.626;2023-06-10T00:31:18;17.40;99.90
8313;DHT22;4194;43.408;24.626;2023-06-10T00:33:43;17.50;99.90
8313;DHT22;4194;43.408;24.626;2023-06-10T00:36:09;17.30;99.90
8313;DHT22;4194;43.408;24.626;2023-06-10T00:38:35;17.30;99.90
8313;DHT22;4194;43.408;24.626;2023-06-10T00:41:01;17.30;99.90
8313;DHT22;4194;43.408;24.626;2023-06-10T00:43:26;17.50;99.90
8313;DHT22;4194;43.408;24.626;2023-06-10T00:45:52;17.40;99.90
8313;DHT22;4194;43.408;24.626;2023-06-10T00:48:18;17.30;99.90
8313;DHT22;4194;43.408;24.626;2023-06-10T00:50:46;17.70;99.90
8313;DHT22;4194;43.408;24.626;2023-06-10T00:53:12;17.40;99.90
8313;DHT22;4194;43.408;24.626;2023-06-10T00:55:38;17.40;99.90
8313;DHT22;4194;43.408;24.626;2023-06-10T00:58:04;17.40;99.90
8313;DHT22;4194;43.408;24.626;2023-06-10T01:00:30;17.60;99.90
8313;DHT22;4194;43.408;24.626;2023-06-10T01:02:56;17.40;99.90
8313;DHT22;4194;43.408;24.626;2023-06-10T01:05:23;17.60;99.90
8313;DHT22;4194;43.408;24.626;2023-06-10T01:08:13;17.40;99.90
8313;DHT22;4194;43.408;24.626;2023-06-10T01:10:59;17.60;99.90
8313;DHT22;4194;43.408;24.626;2023-06-10T01:13:26;17.50;99.90
8313;DHT22;4194;43.408;24.626;2023-06-10T01:16:00;17.10;99.90
8313;DHT22;4194;43.408;24.626;2023-06-10T01:18:30;17.60;99.90
8313;DHT22;4194;43.408;24.626;2023-06-10T01:20:56;17.60;99.90
8313;DHT22;4194;43.408;24.626;2023-06-10T01:23:23;18.70;99.90
8313;DHT22;4194;43.408;24.626;2023-06-10T01:26:09;17.60;99.90
8313;DHT22;4194;43.408;24.626;2023-06-10T01:31:19;17.60;99.90
8313;DHT22;4194;43.408;24.626;2023-06-10T01:33:53;17.60;99.90
8313;DHT22;4194;43.408;24.626;2023-06-10T01:36:21;17.60;99.90
8313;DHT22;4194;43.408;24.626;2023-06-10T01:38:50;17.70;99.90
8313;DHT22;4194;43.408;24.626;2023-06-10T01:41:17;17.70;99.90
8313;DHT22;4194;43.408;24.626;2023-06-10T01:43:45;17.60;99.90
8313;DHT22;4194;43.408;24.626;2023-06-10T01:46:11;17.60;99.90
8313;DHT22;4194;43.408;24.626;2023-06-10T01:48:41;17.60;99.90
8313;DHT22;4194;43.408;24.626;2023-06-10T01:51:07;18.10;99.90
8313;DHT22;4194;43.408;24.626;2023-06-10T01:53:33;17.50;99.90
8313;DHT22;4194;43.408;24.626;2023-06-10T01:55:58;17.20;99.90
8313;DHT22;4194;43.408;24.626;2023-06-10T01:58:25;17.60;99.90
8313;DHT22;4194;43.408;24.626;2023-06-10T02:00:51;17.60;99.90
8313;DHT22;4194;43.408;24.626;2023-06-10T02:03:16;17.90;99.90
8313;DHT22;4194;43.408;24.626;2023-06-10T02:05:42;17.60;99.90
8313;DHT22;4194;43.408;24.626;2023-06-10T02:08:08;17.30;99.90
8313;DHT22;4194;43.408;24.626;2023-06-10T02:10:34;18.20;99.90
8313;DHT22;4194;43.408;24.626;2023-06-10T02:12:59;17.20;99.90
8313;DHT22;4194;43.408;24.626;2023-06-10T02:15:25;17.70;99.90
8313;DHT22;4194;43.408;24.626;2023-06-10T02:17:52;17.60;99.90
8313;DHT22;4194;43.408;24.626;2023-06-10T02:20:17;17.70;99.90
8313;DHT22;4194;43.408;24.626;2023-06-10T02:22:43;17.50;99.90
8313;DHT22;4194;43.408;24.626;2023-06-10T02:25:09;17.70;99.90
8313;DHT22;4194;43.408;24.626;2023-06-10T02:27:35;17.90;99.90
8313;DHT22;4194;43.408;24.626;2023-06-10T02:30:01;17.60;99.90
8313;DHT22;4194;43.408;24.626;2023-06-10T02:32:26;17.80;99.90
8313;DHT22;4194;43.408;24.626;2023-06-10T02:34:52;17.90;99.90
8313;DHT22;4194;43.408;24.626;2023-06-10T02:37:18;17.80;99.90
8313;DHT22;4194;43.408;24.626;2023-06-10T02:39:44;17.60;99.90
8313;DHT22;4194;43.408;24.626;2023-06-10T02:42:11;17.80;99.90
8313;DHT22;4194;43.408;24.626;2023-06-10T02:44:38;18.00;99.90
8313;DHT22;4194;43.408;24.626;2023-06-10T02:47:03;18.00;99.90
8313;DHT22;4194;43.408;24.626;2023-06-10T02:49:29;17.80;99.90
8313;DHT22;4194;43.408;24.626;2023-06-10T02:51:55;17.10;99.90
8313;DHT22;4194;43.408;24.626;2023-06-10T02:54:23;18.00;99.90
8313;DHT22;4194;43.408;24.626;2023-06-10T02:56:49;18.10;99.90
8313;DHT22;4194;43.408;24.626;2023-06-10T02:59:15;17.90;99.90
8313;DHT22;4194;43.408;24.626;2023-06-10T03:01:41;18.00;99.90
8313;DHT22;4194;43.408;24.626;2023-06-10T03:04:07;18.00;99.90
8313;DHT22;4194;43.408;24.626;2023-06-10T03:06:34;18.00;99.90
8313;DHT22;4194;43.408;24.626;2023-06-10T03:09:01;17.10;99.90
8313;DHT22;4194;43.408;24.626;2023-06-10T03:11:27;18.70;99.90
8313;DHT22;4194;43.408;24.626;2023-06-10T03:16:21;18.60;99.90
8313;DHT22;4194;43.408;24.626;2023-06-10T03:18:48;18.80;99.90
8313;DHT22;4194;43.408;24.626;2023-06-10T03:21:14;18.20;99.90
8313;DHT22;4194;43.408;24.626;2023-06-10T03:23:40;18.20;99.90
8313;DHT22;4194;43.408;24.626;2023-06-10T03:26:05;18.30;99.90
8313;DHT22;4194;43.408;24.626;2023-06-10T03:28:31;18.20;99.90
8313;DHT22;4194;43.408;24.626;2023-06-10T03:30:57;18.30;99.90
8313;DHT22;4194;43.408;24.626;2023-06-10T03:33:23;18.30;99.90
8313;DHT22;4194;43.408;24.626;2023-06-10T03:35:49;18.40;99.90
8313;DHT22;4194;43.408;24.626;2023-06-10T03:38:15;18.50;99.90
8313;DHT22;4194;43.408;24.626;2023-06-10T03:40:40;18.40;99.90
8313;DHT22;4194;43.408;24.626;2023-06-10T03:43:06;18.40;99.90
8313;DHT22;4194;43.408;24.626;2023-06-10T03:45:32;18.70;99.90
8313;DHT22;4194;43.408;24.626;2023-06-10T03:47:58;18.50;99.90
8313;DHT22;4194;43.408;24.626;2023-06-10T03:50:24;19.20;99.90
8313;DHT22;4194;43.408;24.626;2023-06-10T03:55:16;18.90;99.90
8313;DHT22;4194;43.408;24.626;2023-06-10T03:57:42;18.60;99.90
8313;DHT22;4194;43.408;24.626;2023-06-10T04:00:09;18.80;99.90
8313;DHT22;4194;43.408;24.626;2023-06-10T04:02:38;18.80;99.90
8313;DHT22;4194;43.408;24.626;2023-06-10T04:05:17;18.60;99.90
8313;DHT22;4194;43.408;24.626;2023-06-10T04:07:44;18.90;99.90
8313;DHT22;4194;43.408;24.626;2023-06-10T04:10:13;19.60;99.90
8313;DHT22;4194;43.408;24.626;2023-06-10T04:12:39;19.30;99.90
8313;DHT22;4194;43.408;24.626;2023-06-10T04:15:05;19.00;99.90
8313;DHT22;4194;43.408;24.626;2023-06-10T04:17:31;18.40;99.90
8313;DHT22;4194;43.408;24.626;2023-06-10T04:19:57;19.00;99.90
8313;DHT22;4194;43.408;24.626;2023-06-10T04:22:26;19.20;99.90
8313;DHT22;4194;43.408;24.626;2023-06-10T04:24:52;20.20;99.90
8313;DHT22;4194;43.408;24.626;2023-06-10T04:27:18;19.10;99.90
8313;DHT22;4194;43.408;24.626;2023-06-10T04:29:44;19.50;99.90
8313;DHT22;4194;43.408;24.626;2023-06-10T04:32:10;19.00;99.90
8313;DHT22;4194;43.408;24.626;2023-06-10T04:34:36;19.20;99.90
8313;DHT22;4194;43.408;24.626;2023-06-10T04:37:04;19.10;99.90
8313;DHT22;4194;43.408;24.626;2023-06-10T04:39:30;19.00;99.90
8313;DHT22;4194;43.408;24.626;2023-06-10T04:41:56;19.20;99.90
8313;DHT22;4194;43.408;24.626;2023-06-10T04:44:22;19.20;99.90
8313;DHT22;4194;43.408;24.626;2023-06-10T04:46:47;19.20;99.90
8313;DHT22;4194;43.408;24.626;2023-06-10T04:49:13;20.00;99.90
8313;DHT22;4194;43.408;24.626;2023-06-10T04:51:42;19.10;99.90
8313;DHT22;4194;43.408;24.626;2023-06-10T04:54:08;19.70;99.90
8313;DHT22;4194;43.408;24.626;2023-06-10T04:56:33;19.70;99.90
8313;DHT22;4194;43.408;24.626;2023-06-10T04:58:59;21.10;99.90
8313;DHT22;4194;43.408;24.626;2023-06-10T05:01:26;20.00;99.90
8313;DHT22;4194;43.408;24.626;2023-06-10T05:03:53;19.50;99.90
8313;DHT22;4194;43.408;24.626;2023-06-10T05:06:18;19.50;99.90
8313;DHT22;4194;43.408;24.626;2023-06-10T05:08:44;20.10;99.90
8313;DHT22;4194;43.408;24.626;2023-06-10T05:11:10;20.00;99.90
8313;DHT22;4194;43.408;24.626;2023-06-10T05:13:35;19.70;99.90
8313;DHT22;4194;43.408;24.626;2023-06-10T05:18:27;19.00;99.90
8313;DHT22;4194;43.408;24.626;2023-06-10T05:20:53;20.30;99.90
8313;DHT22;4194;43.408;24.626;2023-06-10T05:23:19;20.30;99.90
8313;DHT22;4194;43.408;24.626;2023-06-10T05:25:45;20.20;99.90
8313;DHT22;4194;43.408;24.626;2023-06-10T05:28:11;20.30;99.90
8313;DHT22;4194;43.408;24.626;2023-06-10T05:30:37;20.50;99.90
8313;DHT22;4194;43.408;24.626;2023-06-10T05:33:04;19.30;99.90
8313;DHT22;4194;43.408;24.626;2023-06-10T05:37:56;20.00;99.90
8313;DHT22;4194;43.408;24.626;2023-06-10T05:40:22;20.70;99.90
8313;DHT22;4194;43.408;24.626;2023-06-10T05:42:47;20.70;99.90
8313;DHT22;4194;43.408;24.626;2023-06-10T05:45:13;20.40;99.90
8313;DHT22;4194;43.408;24.626;2023-06-10T05:47:39;20.70;99.90
8313;DHT22;4194;43.408;24.626;2023-06-10T05:50:06;21.40;99.90
8313;DHT22;4194;43.408;24.626;2023-06-10T05:52:36;20.60;99.90
8313;DHT22;4194;43.408;24.626;2023-06-10T05:55:05;21.40;99.90
8313;DHT22;4194;43.408;24.626;2023-06-10T05:57:31;21.00;99.90
8313;DHT22;4194;43.408;24.626;2023-06-10T05:59:57;20.90;99.90
8313;DHT22;4194;43.408;24.626;2023-06-10T06:02:22;21.10;99.90
8313;DHT22;4194;43.408;24.626;2023-06-10T06:04:48;21.30;99.90
8313;DHT22;4194;43.408;24.626;2023-06-10T06:07:14;21.30;99.90
8313;DHT22;4194;43.408;24.626;2023-06-10T06:09:40;21.00;99.90
8313;DHT22;4194;43.408;24.626;2023-06-10T06:12:06;22.30;99.90
8313;DHT22;4194;43.408;24.626;2023-06-10T06:14:33;21.70;99.90
8313;DHT22;4194;43.408;24.626;2023-06-10T06:17:02;22.00;99.90
8313;DHT22;4194;43.408;24.626;2023-06-10T06:19:27;22.00;99.90
8313;DHT22;4194;43.408;24.626;2023-06-10T06:21:53;22.00;99.90
8313;DHT22;4194;43.408;24.626;2023-06-10T06:24:20;22.70;99.90
8313;DHT22;4194;43.408;24.626;2023-06-10T06:26:45;22.60;99.90
8313;DHT22;4194;43.408;24.626;2023-06-10T06:29:11;22.30;99.90
8313;DHT22;4194;43.408;24.626;2023-06-10T06:31:37;22.90;99.90
8313;DHT22;4194;43.408;24.626;2023-06-10T06:34:02;22.80;99.90
8313;DHT22;4194;43.408;24.626;2023-06-10T06:36:28;22.80;99.90
8313;DHT22;4194;43.408;24.626;2023-06-10T06:41:20;22.80;99.90
8313;DHT22;4194;43.408;24.626;2023-06-10T06:43:47;22.60;99.90
8313;DHT22;4194;43.408;24.626;2023-06-10T06:46:13;22.40;99.90
8313;DHT22;4194;43.408;24.626;2023-06-10T06:48:39;22.20;99.90
8313;DHT22;4194;43.408;24.626;2023-06-10T06:51:04;22.40;99.90
8313;DHT22;4194;43.408;24.626;2023-06-10T06:53:30;22.70;99.90
8313;DHT22;4194;43.408;24.626;2023-06-10T06:55:56;22.00;99.90
8313;DHT22;4194;43.408;24.626;2023-06-10T06:58:21;22.40;99.90
8313;DHT22;4194;43.408;24.626;2023-06-10T07:00:47;21.30;99.90
8313;DHT22;4194;43.408;24.626;2023-06-10T07:03:13;22.60;99.90
8313;DHT22;4194;43.408;24.626;2023-06-10T07:05:39;22.90;99.90
8313;DHT22;4194;43.408;24.626;2023-06-10T07:08:05;22.70;99.90
8313;DHT22;4194;43.408;24.626;2023-06-10T07:10:30;22.50;99.90
8313;DHT22;4194;43.408;24.626;2023-06-10T07:12:56;22.70;99.90
8313;DHT22;4194;43.408;24.626;2023-06-10T07:15:21;22.50;99.90
8313;DHT22;4194;43.408;24.626;2023-06-10T07:17:47;22.80;99.90
8313;DHT22;4194;43.408;24.626;2023-06-10T07:20:13;22.30;99.90
8313;DHT22;4194;43.408;24.626;2023-06-10T07:22:42;22.50;99.90
8313;DHT22;4194;43.408;24.626;2023-06-10T07:25:07;22.60;99.90
8313;DHT22;4194;43.408;24.626;2023-06-10T07:27:33;22.90;99.90
8313;DHT22;4194;43.408;24.626;2023-06-10T07:29:59;23.40;99.90
8313;DHT22;4194;43.408;24.626;2023-06-10T07:32:26;23.10;99.90
8313;DHT22;4194;43.408;24.626;2023-06-10T07:34:52;23.40;99.90
8313;DHT22;4194;43.408;24.626;2023-06-10T07:37:18;23.00;99.90
8313;DHT22;4194;43.408;24.626;2023-06-10T07:39:45;22.70;99.90
8313;DHT22;4194;43.408;24.626;2023-06-10T07:42:11;23.10;99.90
8313;DHT22;4194;43.408;24.626;2023-06-10T07:44:36;23.10;99.90
8313;DHT22;4194;43.408;24.626;2023-06-10T07:47:02;22.80;99.90
8313;DHT22;4194;43.408;24.626;2023-06-10T07:49:28;23.30;99.90
8313;DHT22;4194;43.408;24.626;2023-06-10T07:51:54;23.40;99.90
8313;DHT22;4194;43.408;24.626;2023-06-10T07:54:21;23.30;99.90
8313;DHT22;4194;43.408;24.626;2023-06-10T07:56:46;23.60;99.90
8313;DHT22;4194;43.408;24.626;2023-06-10T07:59:13;23.90;99.90
8313;DHT22;4194;43.408;24.626;2023-06-10T08:01:39;23.80;99.90
8313;DHT22;4194;43.408;24.626;2023-06-10T08:04:05;23.90;99.90
8313;DHT22;4194;43.408;24.626;2023-06-10T08:08:57;24.10;99.90
8313;DHT22;4194;43.408;24.626;2023-06-10T08:11:23;24.20;99.90
8313;DHT22;4194;43.408;24.626;2023-06-10T08:13:49;24.30;99.90
8313;DHT22;4194;43.408;24.626;2023-06-10T08:18:41;23.20;99.90
8313;DHT22;4194;43.408;24.626;2023-06-10T08:21:06;23.90;99.90
8313;DHT22;4194;43.408;24.626;2023-06-10T08:23:32;23.30;99.90
8313;DHT22;4194;43.408;24.626;2023-06-10T08:25:58;24.20;99.90
8313;DHT22;4194;43.408;24.626;2023-06-10T08:28:23;24.30;99.90
8313;DHT22;4194;43.408;24.626;2023-06-10T08:30:49;24.00;99.90
8313;DHT22;4194;43.408;24.626;2023-06-10T08:33:15;24.30;99.90
8313;DHT22;4194;43.408;24.626;2023-06-10T08:35:40;24.60;99.90
8313;DHT22;4194;43.408;24.626;2023-06-10T08:38:06;24.30;99.20
8313;DHT22;4194;43.408;24.626;2023-06-10T08:40:33;24.80;99.70
8313;DHT22;4194;43.408;24.626;2023-06-10T08:43:16;25.90;98.70
8313;DHT22;4194;43.408;24.626;2023-06-10T08:45:43;25.90;96.70
8313;DHT22;4194;43.408;24.626;2023-06-10T08:48:12;25.80;95.60
8313;DHT22;4194;43.408;24.626;2023-06-10T08:50:40;26.30;96.00
8313;DHT22;4194;43.408;24.626;2023-06-10T08:53:06;27.10;94.70
8313;DHT22;4194;43.408;24.626;2023-06-10T08:55:38;26.80;93.70
8313;DHT22;4194;43.408;24.626;2023-06-10T08:58:04;26.80;94.10
8313;DHT22;4194;43.408;24.626;2023-06-10T09:00:30;26.50;93.30
8313;DHT22;4194;43.408;24.626;2023-06-10T09:02:57;26.10;93.10
8313;DHT22;4194;43.408;24.626;2023-06-10T09:05:23;26.60;93.00
8313;DHT22;4194;43.408;24.626;2023-06-10T09:07:49;26.50;92.90
8313;DHT22;4194;43.408;24.626;2023-06-10T09:10:16;26.60;93.20
8313;DHT22;4194;43.408;24.626;2023-06-10T09:12:42;26.30;92.70
8313;DHT22;4194;43.408;24.626;2023-06-10T09:15:08;26.10;92.80
8313;DHT22;4194;43.408;24.626;2023-06-10T09:17:34;26.40;92.10
8313;DHT22;4194;43.408;24.626;2023-06-10T09:20:02;27.40;91.60
8313;DHT22;4194;43.408;24.626;2023-06-10T09:22:28;27.90;90.40
8313;DHT22;4194;43.408;24.626;2023-06-10T09:25:08;27.50;89.90
8313;DHT22;4194;43.408;24.626;2023-06-10T09:27:54;28.00;88.80
8313;DHT22;4194;43.408;24.626;2023-06-10T09:32:52;28.10;88.50
8313;DHT22;4194;43.408;24.626;2023-06-10T09:35:21;27.70;89.20
8313;DHT22;4194;43.408;24.626;2023-06-10T09:37:53;27.70;88.80
8313;DHT22;4194;43.408;24.626;2023-06-10T09:40:19;27.50;86.10
8313;DHT22;4194;43.408;24.626;2023-06-10T09:42:45;27.40;87.50
8313;DHT22;4194;43.408;24.626;2023-06-10T09:45:14;27.90;88.00
8313;DHT22;4194;43.408;24.626;2023-06-10T09:47:40;27.90;88.60
8313;DHT22;4194;43.408;24.626;2023-06-10T09:50:06;28.00;86.80
8313;DHT22;4194;43.408;24.626;2023-06-10T09:52:32;28.50;80.70
8313;DHT22;4194;43.408;24.626;2023-06-10T09:55:01;28.60;81.80
8313;DHT22;4194;43.408;24.626;2023-06-10T09:57:31;28.70;82.80
8313;DHT22;4194;43.408;24.626;2023-06-10T10:00:11;29.30;80.10
8313;DHT22;4194;43.408;24.626;2023-06-10T10:02:48;28.90;80.60
8313;DHT22;4194;43.408;24.626;2023-06-10T10:05:16;28.40;83.80
8313;DHT22;4194;43.408;24.626;2023-06-10T10:07:43;27.40;81.80
8313;DHT22;4194;43.408;24.626;2023-06-10T10:10:09;27.70;79.80
8313;DHT22;4194;43.408;24.626;2023-06-10T10:12:38;28.20;81.00
8313;DHT22;4194;43.408;24.626;2023-06-10T10:15:06;28.20;82.40
8313;DHT22;4194;43.408;24.626;2023-06-10T10:17:34;27.70;82.90
8313;DHT22;4194;43.408;24.626;2023-06-10T10:20:04;28.00;83.90
8313;DHT22;4194;43.408;24.626;2023-06-10T10:22:36;28.00;82.40
8313;DHT22;4194;43.408;24.626;2023-06-10T10:25:08;28.10;79.40
8313;DHT22;4194;43.408;24.626;2023-06-10T10:27:57;28.60;80.10
8313;DHT22;4194;43.408;24.626;2023-06-10T10:30:24;28.10;79.80
8313;DHT22;4194;43.408;24.626;2023-06-10T10:32:57;28.30;78.70
8313;DHT22;4194;43.408;24.626;2023-06-10T10:35:30;29.10;80.40
8313;DHT22;4194;43.408;24.626;2023-06-10T10:37:57;28.90;79.30
8313;DHT22;4194;43.408;24.626;2023-06-10T10:40:24;28.80;78.30
8313;DHT22;4194;43.408;24.626;2023-06-10T10:42:51;28.90;77.40
8313;DHT22;4194;43.408;24.626;2023-06-10T10:45:17;28.80;77.00
8313;DHT22;4194;43.408;24.626;2023-06-10T10:47:45;29.40;73.90
8313;DHT22;4194;43.408;24.626;2023-06-10T10:50:15;29.40;72.70
8313;DHT22;4194;43.408;24.626;2023-06-10T10:52:59;29.90;73.00
8313;DHT22;4194;43.408;24.626;2023-06-10T10:55:27;30.50;73.00
8313;DHT22;4194;43.408;24.626;2023-06-10T10:58:02;31.50;68.50
8313;DHT22;4194;43.408;24.626;2023-06-10T11:00:36;31.50;67.70
8313;DHT22;4194;43.408;24.626;2023-06-10T11:05:39;31.60;65.50
8313;DHT22;4194;43.408;24.626;2023-06-10T11:08:07;31.30;65.10
8313;DHT22;4194;43.408;24.626;2023-06-10T11:13:05;32.00;62.50
8313;DHT22;4194;43.408;24.626;2023-06-10T11:15:31;32.40;63.10
8313;DHT22;4194;43.408;24.626;2023-06-10T11:23:38;32.80;60.50
8313;DHT22;4194;43.408;24.626;2023-06-10T11:31:40;33.00;59.70
8313;DHT22;4194;43.408;24.626;2023-06-10T11:34:06;33.20;58.90
8313;DHT22;4194;43.408;24.626;2023-06-10T11:36:36;33.70;56.10
8313;DHT22;4194;43.408;24.626;2023-06-10T11:39:04;33.40;55.70
8313;DHT22;4194;43.408;24.626;2023-06-10T11:41:31;33.40;56.30
8313;DHT22;4194;43.408;24.626;2023-06-10T11:44:05;33.50;56.30
8313;DHT22;4194;43.408;24.626;2023-06-10T11:46:34;34.40;54.20
8313;DHT22;4194;43.408;24.626;2023-06-10T11:49:00;34.00;54.80
8313;DHT22;4194;43.408;24.626;2023-06-10T11:51:36;34.00;53.90
8313;DHT22;4194;43.408;24.626;2023-06-10T11:54:03;34.00;55.90
8313;DHT22;4194;43.408;24.626;2023-06-10T11:56:29;34.40;55.20
8313;DHT22;4194;43.408;24.626;2023-06-10T11:58:58;35.40;53.30
8313;DHT22;4194;43.408;24.626;2023-06-10T12:01:25;35.00;53.80
8313;DHT22;4194;43.408;24.626;2023-06-10T12:04:08;35.40;53.30
8313;DHT22;4194;43.408;24.626;2023-06-10T12:06:49;35.90;51.50
8313;DHT22;4194;43.408;24.626;2023-06-10T12:11:59;36.20;49.70
8313;DHT22;4194;43.408;24.626;2023-06-10T12:17:21;36.10;49.20
8313;DHT22;4194;43.408;24.626;2023-06-10T12:19:47;36.30;50.10
8313;DHT22;4194;43.408;24.626;2023-06-10T12:22:13;36.20;48.00
8313;DHT22;4194;43.408;24.626;2023-06-10T12:24:57;35.80;48.80
8313;DHT22;4194;43.408;24.626;2023-06-10T12:27:25;34.80;49.50
8313;DHT22;4194;43.408;24.626;2023-06-10T12:29:51;34.40;53.00
8313;DHT22;4194;43.408;24.626;2023-06-10T12:32:20;33.00;53.70
8313;DHT22;4194;43.408;24.626;2023-06-10T12:34:50;32.60;55.60
8313;DHT22;4194;43.408;24.626;2023-06-10T12:37:27;31.70;57.00
8313;DHT22;4194;43.408;24.626;2023-06-10T12:39:52;30.60;58.60
8313;DHT22;4194;43.408;24.626;2023-06-10T12:42:22;30.50;63.70
8313;DHT22;4194;43.408;24.626;2023-06-10T12:44:53;28.90;66.30
8313;DHT22;4194;43.408;24.626;2023-06-10T12:52:11;21.80;98.70
8313;DHT22;4194;43.408;24.626;2023-06-10T12:54:36;20.60;99.90
8313;DHT22;4194;43.408;24.626;2023-06-10T12:57:03;21.30;99.90
8313;DHT22;4194;43.408;24.626;2023-06-10T12:59:28;20.80;99.90
8313;DHT22;4194;43.408;24.626;2023-06-10T13:01:55;18.90;99.90
8313;DHT22;4194;43.408;24.626;2023-06-10T13:04:21;20.30;99.90
8313;DHT22;4194;43.408;24.626;2023-06-10T13:06:47;19.10;99.90
8313;DHT22;4194;43.408;24.626;2023-06-10T13:09:14;19.90;99.90
8313;DHT22;4194;43.408;24.626;2023-06-10T13:11:41;20.80;99.90
8313;DHT22;4194;43.408;24.626;2023-06-10T13:14:08;20.10;99.90
8313;DHT22;4194;43.408;24.626;2023-06-10T13:16:35;20.60;99.90
8313;DHT22;4194;43.408;24.626;2023-06-10T13:19:03;21.20;99.90
8313;DHT22;4194;43.408;24.626;2023-06-10T13:21:31;20.60;99.90
8313;DHT22;4194;43.408;24.626;2023-06-10T13:23:57;20.60;99.90
8313;DHT22;4194;43.408;24.626;2023-06-10T13:26:23;21.60;99.90
8313;DHT22;4194;43.408;24.626;2023-06-10T13:28:48;21.30;99.90
8313;DHT22;4194;43.408;24.626;2023-06-10T13:31:14;21.60;99.90
8313;DHT22;4194;43.408;24.626;2023-06-10T13:33:41;22.60;99.90
8313;DHT22;4194;43.408;24.626;2023-06-10T13:36:09;21.70;99.90
8313;DHT22;4194;43.408;24.626;2023-06-10T13:38:35;22.60;99.90
8313;DHT22;4194;43.408;24.626;2023-06-10T13:41:00;23.40;99.90
8313;DHT22;4194;43.408;24.626;2023-06-10T13:43:26;23.90;99.90
8313;DHT22;4194;43.408;24.626;2023-06-10T13:45:52;23.40;99.90
8313;DHT22;4194;43.408;24.626;2023-06-10T13:48:17;25.20;99.90
8313;DHT22;4194;43.408;24.626;2023-06-10T13:50:43;25.40;99.90
8313;DHT22;4194;43.408;24.626;2023-06-10T13:53:11;27.40;99.90
8313;DHT22;4194;43.408;24.626;2023-06-10T13:55:37;27.00;99.90
8313;DHT22;4194;43.408;24.626;2023-06-10T13:58:02;29.60;99.90
8313;DHT22;4194;43.408;24.626;2023-06-10T14:00:28;33.80;84.60
8313;DHT22;4194;43.408;24.626;2023-06-10T14:02:54;33.00;82.70
8313;DHT22;4194;43.408;24.626;2023-06-10T14:05:20;34.60;75.30
8313;DHT22;4194;43.408;24.626;2023-06-10T14:07:45;35.10;75.80
8313;DHT22;4194;43.408;24.626;2023-06-10T14:10:11;36.30;65.20
8313;DHT22;4194;43.408;24.626;2023-06-10T14:12:37;37.30;68.50
8313;DHT22;4194;43.408;24.626;2023-06-10T14:15:03;38.30;63.70
8313;DHT22;4194;43.408;24.626;2023-06-10T14:17:29;39.40;61.90
8313;DHT22;4194;43.408;24.626;2023-06-10T14:19:55;40.30;59.30
8313;DHT22;4194;43.408;24.626;2023-06-10T14:22:20;39.80;55.80
8313;DHT22;4194;43.408;24.626;2023-06-10T14:24:46;40.80;57.00
8313;DHT22;4194;43.408;24.626;2023-06-10T14:27:12;40.20;56.90
8313;DHT22;4194;43.408;24.626;2023-06-10T14:29:38;38.30;58.00
8313;DHT22;4194;43.408;24.626;2023-06-10T14:32:04;35.90;61.40
8313;DHT22;4194;43.408;24.626;2023-06-10T14:34:30;33.70;67.60
8313;DHT22;4194;43.408;24.626;2023-06-10T14:36:59;33.10;74.60
8313;DHT22;4194;43.408;24.626;2023-06-10T14:39:25;31.40;83.20
8313;DHT22;4194;43.408;24.626;2023-06-10T14:41:51;31.30;83.70
8313;DHT22;4194;43.408;24.626;2023-06-10T14:44:19;30.40;83.80
8313;DHT22;4194;43.408;24.626;2023-06-10T14:46:45;31.10;83.10
8313;DHT22;4194;43.408;24.626;2023-06-10T14:49:11;32.50;80.90
8313;DHT22;4194;43.408;24.626;2023-06-10T14:51:37;35.30;65.40
8313;DHT22;4194;43.408;24.626;2023-06-10T14:54:02;37.90;63.90
8313;DHT22;4194;43.408;24.626;2023-06-10T14:56:28;38.90;55.20
8313;DHT22;4194;43.408;24.626;2023-06-10T14:58:54;40.00;49.20
8313;DHT22;4194;43.408;24.626;2023-06-10T15:01:20;41.20;53.00
8313;DHT22;4194;43.408;24.626;2023-06-10T15:03:46;42.00;49.90
8313;DHT22;4194;43.408;24.626;2023-06-10T15:06:11;43.10;45.50
8313;DHT22;4194;43.408;24.626;2023-06-10T15:08:37;42.80;45.30
8313;DHT22;4194;43.408;24.626;2023-06-10T15:11:03;42.70;47.80
8313;DHT22;4194;43.408;24.626;2023-06-10T15:13:29;42.80;46.70
8313;DHT22;4194;43.408;24.626;2023-06-10T15:15:54;42.40;46.30
8313;DHT22;4194;43.408;24.626;2023-06-10T15:18:21;40.60;49.00
8313;DHT22;4194;43.408;24.626;2023-06-10T15:20:46;39.10;55.30
8313;DHT22;4194;43.408;24.626;2023-06-10T15:23:13;39.70;47.50
8313;DHT22;4194;43.408;24.626;2023-06-10T15:25:39;40.70;49.60
8313;DHT22;4194;43.408;24.626;2023-06-10T15:28:06;40.10;45.00
8313;DHT22;4194;43.408;24.626;2023-06-10T15:30:32;39.90;49.10
8313;DHT22;4194;43.408;24.626;2023-06-10T15:32:57;38.90;43.20
8313;DHT22;4194;43.408;24.626;2023-06-10T15:35:23;37.30;50.80
8313;DHT22;4194;43.408;24.626;2023-06-10T15:37:49;37.40;56.30
8313;DHT22;4194;43.408;24.626;2023-06-10T15:40:15;37.50;56.30
8313;DHT22;4194;43.408;24.626;2023-06-10T15:42:41;36.50;53.60
8313;DHT22;4194;43.408;24.626;2023-06-10T15:45:07;33.80;58.10
8313;DHT22;4194;43.408;24.626;2023-06-10T15:47:33;34.60;59.10
8313;DHT22;4194;43.408;24.626;2023-06-10T15:52:24;33.90;67.00
8313;DHT22;4194;43.408;24.626;2023-06-10T15:54:50;35.50;65.70
8313;DHT22;4194;43.408;24.626;2023-06-10T15:57:16;37.10;61.70
8313;DHT22;4194;43.408;24.626;2023-06-10T15:59:41;38.70;58.30
8313;DHT22;4194;43.408;24.626;2023-06-10T16:02:07;38.70;59.00
8313;DHT22;4194;43.408;24.626;2023-06-10T16:04:33;38.20;58.00
8313;DHT22;4194;43.408;24.626;2023-06-10T16:06:58;37.20;56.00
8313;DHT22;4194;43.408;24.626;2023-06-10T16:09:24;38.20;55.90
8313;DHT22;4194;43.408;24.626;2023-06-10T16:11:50;37.30;54.70
8313;DHT22;4194;43.408;24.626;2023-06-10T16:14:16;35.30;61.60
8313;DHT22;4194;43.408;24.626;2023-06-10T16:16:41;34.60;64.90
8313;DHT22;4194;43.408;24.626;2023-06-10T16:19:07;33.60;66.60
8313;DHT22;4194;43.408;24.626;2023-06-10T16:21:33;32.90;67.00
8313;DHT22;4194;43.408;24.626;2023-06-10T16:23:58;31.80;71.40
8313;DHT22;4194;43.408;24.626;2023-06-10T16:26:24;31.80;72.20
8313;DHT22;4194;43.408;24.626;2023-06-10T16:28:50;29.70;75.60
8313;DHT22;4194;43.408;24.626;2023-06-10T16:31:16;29.60;76.30
8313;DHT22;4194;43.408;24.626;2023-06-10T16:33:41;28.90;87.70
8313;DHT22;4194;43.408;24.626;2023-06-10T16:36:07;28.30;88.10
8313;DHT22;4194;43.408;24.626;2023-06-10T16:38:33;27.30;92.10